Time;durP1;ratioP1;P1;durP2;ratioP2;P2;SDS_P1;SDS_P2;PMS_P1;PMS_P2;Temp;Humidity;BMP_temperature;BMP_pressure;BME280_temperature;BME280_humidity;BME280_pressure;Samples;Min_cycle;Max_cycle;Signal;HPM_P1;HPM_P2
2023/10/11 00:00:24;;;;;;;11.57;3.90;;;;;;;;;;4944173;28;20031;-71
2023/10/11 00:02:49;;;;;;;8.40;3.78;;;;;;;;;;4946011;28;20054;-72
2023/10/11 00:05:15;;;;;;;9.23;3.88;;;;;;;;;;4943784;28;20608;-72
2023/10/11 00:07:42;;;;;;;8.38;4.00;;;;;;;;;;4945261;28;20548;-72
2023/10/11 00:10:10;;;;;;;14.00;4.80;;;;;;;;;;4961326;28;20444;-72
2023/10/11 00:12:41;;;;;;;9.20;4.10;;;;;;;;;;4949902;28;20033;-71
2023/10/11 00:15:08;;;;;;;7.53;3.72;;;;;;;;;;4944721;28;20117;-72
2023/10/11 00:17:36;;;;;;;8.48;3.95;;;;;;;;;;4946234;28;20031;-72
2023/10/11 00:20:15;;;;;;;9.70;4.20;;;;;;;;;;4941951;28;20069;-72
2023/10/11 00:22:42;;;;;;;8.65;3.60;;;;;;;;;;4950289;28;20035;-73
2023/10/11 00:25:09;;;;;;;9.18;4.30;;;;;;;;;;4945048;28;20138;-72
2023/10/11 00:27:36;;;;;;;10.25;4.10;;;;;;;;;;4946182;28;20540;-73
2023/10/11 00:30:02;;;;;;;9.75;4.38;;;;;;;;;;4937085;28;20902;-72
2023/10/11 00:32:29;;;;;;;9.13;4.32;;;;;;;;;;4946894;28;20437;-73
2023/10/11 00:34:55;;;;;;;9.50;4.22;;;;;;;;;;4944351;28;20035;-72
2023/10/11 00:37:21;;;;;;;8.57;3.83;;;;;;;;;;4945784;28;20050;-72
2023/10/11 00:39:47;;;;;;;8.35;3.60;;;;;;;;;;4947979;28;20105;-71
2023/10/11 00:42:14;;;;;;;8.13;4.13;;;;;;;;;;4941069;28;20684;-72
2023/10/11 00:44:42;;;;;;;8.82;3.92;;;;;;;;;;4945009;28;20022;-72
2023/10/11 00:47:08;;;;;;;8.50;3.88;;;;;;;;;;4940448;28;20027;-72
2023/10/11 00:49:35;;;;;;;8.93;3.85;;;;;;;;;;4941748;28;20321;-72
2023/10/11 00:52:06;;;;;;;8.52;4.13;;;;;;;;;;4942607;28;20026;-72
2023/10/11 00:54:32;;;;;;;8.85;4.47;;;;;;;;;;4948425;28;20144;-73
2023/10/11 00:56:59;;;;;;;8.48;4.03;;;;;;;;;;4941764;28;20039;-72
2023/10/11 00:59:25;;;;;;;8.27;4.03;;;;;;;;;;4941171;28;20030;-72
2023/10/11 01:01:51;;;;;;;8.93;3.95;;;;;;;;;;4943954;28;20054;-71
2023/10/11 01:04:18;;;;;;;10.05;4.40;;;;;;;;;;4944011;28;20098;-71
2023/10/11 01:06:48;;;;;;;8.65;4.03;;;;;;;;;;4943521;28;20022;-72
2023/10/11 01:09:18;;;;;;;9.55;4.25;;;;;;;;;;4946833;28;20027;-71
2023/10/11 01:11:47;;;;;;;9.65;4.35;;;;;;;;;;4945462;28;20384;-71
2023/10/11 01:14:14;;;;;;;8.90;4.20;;;;;;;;;;4943733;28;20034;-71
2023/10/11 01:16:41;;;;;;;10.02;3.88;;;;;;;;;;4945772;28;20026;-72
2023/10/11 01:19:11;;;;;;;8.55;3.90;;;;;;;;;;4941801;28;20049;-73
2023/10/11 01:21:46;;;;;;;9.45;4.55;;;;;;;;;;4944456;28;20034;-72
2023/10/11 01:24:14;;;;;;;8.15;3.97;;;;;;;;;;4941096;28;20410;-72
2023/10/11 01:26:42;;;;;;;10.10;4.78;;;;;;;;;;4946189;28;20038;-72
2023/10/11 01:29:09;;;;;;;8.45;4.38;;;;;;;;;;4939913;28;20023;-72
2023/10/11 01:31:35;;;;;;;8.60;4.22;;;;;;;;;;4942747;28;20499;-71
2023/10/11 01:34:02;;;;;;;9.20;4.03;;;;;;;;;;4944983;28;20037;-71
2023/10/11 01:36:28;;;;;;;9.32;4.00;;;;;;;;;;4942472;28;20145;-72
2023/10/11 01:38:58;;;;;;;7.95;3.70;;;;;;;;;;4944361;28;20122;-73
2023/10/11 01:41:26;;;;;;;8.55;3.90;;;;;;;;;;4962125;28;20295;-72
2023/10/11 01:43:53;;;;;;;8.77;3.78;;;;;;;;;;4944120;28;20266;-72
2023/10/11 01:46:35;;;;;;;10.27;4.20;;;;;;;;;;4943382;28;20026;-72
2023/10/11 01:49:01;;;;;;;8.35;4.00;;;;;;;;;;4942136;28;20019;-72
2023/10/11 01:51:28;;;;;;;9.43;4.28;;;;;;;;;;4945656;28;20039;-72
2023/10/11 01:53:54;;;;;;;9.90;3.90;;;;;;;;;;4940730;28;20033;-72
2023/10/11 01:56:23;;;;;;;9.40;4.30;;;;;;;;;;4943877;28;20500;-72
2023/10/11 01:58:50;;;;;;;8.70;3.78;;;;;;;;;;4943071;28;20484;-72
2023/10/11 02:01:21;;;;;;;9.15;3.92;;;;;;;;;;4939420;28;20669;-72
2023/10/11 02:03:48;;;;;;;8.98;4.43;;;;;;;;;;4944704;28;20052;-72
2023/10/11 02:06:14;;;;;;;9.55;4.15;;;;;;;;;;4940479;28;20378;-72
2023/10/11 02:08:40;;;;;;;9.18;3.80;;;;;;;;;;4947086;28;20394;-72
2023/10/11 02:11:07;;;;;;;8.82;4.10;;;;;;;;;;4941802;28;20035;-72
2023/10/11 02:13:33;;;;;;;9.00;4.10;;;;;;;;;;4945004;28;20596;-72
2023/10/11 02:16:00;;;;;;;8.70;4.10;;;;;;;;;;4942649;28;20030;-73
2023/10/11 02:18:27;;;;;;;8.75;3.50;;;;;;;;;;4943661;28;20941;-72
2023/10/11 02:20:55;;;;;;;8.30;4.18;;;;;;;;;;4945319;28;20073;-72
2023/10/11 02:23:23;;;;;;;9.30;3.85;;;;;;;;;;4942230;28;20057;-72
2023/10/11 02:25:49;;;;;;;9.65;4.28;;;;;;;;;;4944005;28;20062;-72
2023/10/11 02:28:15;;;;;;;10.20;4.40;;;;;;;;;;4942626;28;22633;-72
2023/10/11 02:30:42;;;;;;;10.27;4.20;;;;;;;;;;4947367;28;20634;-72
2023/10/11 02:33:11;;;;;;;8.75;4.18;;;;;;;;;;4938530;28;20703;-72
2023/10/11 02:35:52;;;;;;;8.48;4.07;;;;;;;;;;4942058;28;20420;-74
2023/10/11 02:38:22;;;;;;;8.40;3.72;;;;;;;;;;4939644;28;20030;-72
2023/10/11 02:40:55;;;;;;;8.10;3.50;;;;;;;;;;4942243;28;20034;-71
2023/10/11 02:43:28;;;;;;;7.63;3.40;;;;;;;;;;4942360;28;20035;-72
2023/10/11 02:45:54;;;;;;;8.40;3.85;;;;;;;;;;4942850;28;20026;-72
2023/10/11 02:48:21;;;;;;;9.48;3.70;;;;;;;;;;4944748;28;20058;-71
2023/10/11 02:50:48;;;;;;;8.60;3.70;;;;;;;;;;4944310;28;20538;-71
2023/10/11 02:53:21;;;;;;;8.70;3.95;;;;;;;;;;4941088;28;20031;-71
2023/10/11 02:55:57;;;;;;;10.23;3.90;;;;;;;;;;4939961;28;21181;-71
2023/10/11 02:58:29;;;;;;;8.57;3.90;;;;;;;;;;4945509;28;20027;-73
2023/10/11 03:01:02;;;;;;;8.75;4.13;;;;;;;;;;4938930;28;20335;-74
2023/10/11 03:03:29;;;;;;;10.25;4.32;;;;;;;;;;4945311;28;20141;-72
2023/10/11 03:05:58;;;;;;;8.00;3.80;;;;;;;;;;4946132;28;20439;-73
2023/10/11 03:08:26;;;;;;;8.73;3.90;;;;;;;;;;4948268;28;20520;-73
2023/10/11 03:10:59;;;;;;;8.75;3.97;;;;;;;;;;4946567;28;20102;-72
2023/10/11 03:13:29;;;;;;;9.20;4.15;;;;;;;;;;4947133;28;20039;-71
2023/10/11 03:15:56;;;;;;;9.15;4.15;;;;;;;;;;4946694;28;20572;-72
2023/10/11 03:18:26;;;;;;;8.10;4.03;;;;;;;;;;4947114;28;20479;-72
2023/10/11 03:21:39;;;;;;;8.98;3.80;;;;;;;;;;4945300;28;20129;-72
2023/10/11 03:23:47;;;;;;;9.40;4.07;;;;;;;;;;4943595;28;20143;-71
2023/10/11 03:26:18;;;;;;;8.68;3.97;;;;;;;;;;4947374;28;20029;-72
2023/10/11 03:29:02;;;;;;;8.00;3.75;;;;;;;;;;4945147;28;20271;-71
2023/10/11 03:31:31;;;;;;;9.10;4.15;;;;;;;;;;4945028;28;20117;-71
2023/10/11 03:33:57;;;;;;;8.32;4.03;;;;;;;;;;4944857;28;20046;-72
2023/10/11 03:36:34;;;;;;;9.75;4.50;;;;;;;;;;4945040;28;20050;-71
2023/10/11 03:39:08;;;;;;;9.70;4.00;;;;;;;;;;4944143;28;20030;-72
2023/10/11 03:41:36;;;;;;;8.10;3.80;;;;;;;;;;4944912;28;20129;-72
2023/10/11 03:44:11;;;;;;;8.93;3.60;;;;;;;;;;4942031;28;20026;-71
2023/10/11 03:46:38;;;;;;;8.60;3.80;;;;;;;;;;4949713;28;20118;-72
2023/10/11 03:50:06;;;;;;;8.07;3.83;;;;;;;;;;4945730;28;20552;-73
2023/10/11 03:52:01;;;;;;;8.27;4.07;;;;;;;;;;4934240;28;20051;-74
2023/10/11 03:54:27;;;;;;;8.35;3.72;;;;;;;;;;4947102;28;20420;-73
2023/10/11 03:56:54;;;;;;;9.35;3.97;;;;;;;;;;4947161;28;20366;-73
2023/10/11 03:59:25;;;;;;;8.15;3.50;;;;;;;;;;4942617;28;20088;-74
2023/10/11 04:01:52;;;;;;;9.02;4.30;;;;;;;;;;4941002;28;20097;-71
2023/10/11 04:04:21;;;;;;;9.30;3.72;;;;;;;;;;4942943;28;20032;-71
2023/10/11 04:06:51;;;;;;;8.73;3.88;;;;;;;;;;4941453;28;20557;-72
2023/10/11 04:12:04;;;;;;;10.77;3.80;;;;;;;;;;4943318;28;20358;-72
2023/10/11 04:14:45;;;;;;;11.30;4.22;;;;;;;;;;4941535;28;20044;-73
2023/10/11 04:22:53;;;;;;;8.27;3.80;;;;;;;;;;4940249;28;20385;-73
2023/10/11 04:25:22;;;;;;;8.85;3.75;;;;;;;;;;4943388;28;20026;-72
2023/10/11 04:27:55;;;;;;;8.65;4.40;;;;;;;;;;4944476;28;21341;-73
2023/10/11 04:30:41;;;;;;;11.07;4.60;;;;;;;;;;4939916;28;20028;-75
2023/10/11 04:33:11;;;;;;;9.73;4.50;;;;;;;;;;4937306;28;20035;-73
2023/10/11 04:35:37;;;;;;;10.95;5.10;;;;;;;;;;4941156;28;20054;-73
2023/10/11 04:38:04;;;;;;;10.65;4.65;;;;;;;;;;4944000;28;20023;-73
2023/10/11 04:43:04;;;;;;;8.75;4.70;;;;;;;;;;4936616;28;20148;-73
2023/10/11 04:45:46;;;;;;;10.00;4.28;;;;;;;;;;4943044;28;20165;-73
2023/10/11 04:48:15;;;;;;;10.02;4.50;;;;;;;;;;4938496;28;20275;-71
2023/10/11 04:50:50;;;;;;;8.98;3.97;;;;;;;;;;4945885;28;20034;-72
2023/10/11 04:53:21;;;;;;;9.73;4.30;;;;;;;;;;4943552;28;20046;-71
2023/10/11 04:56:51;;;;;;;11.00;4.65;;;;;;;;;;4941151;28;20034;-72
2023/10/11 04:58:51;;;;;;;12.05;4.30;;;;;;;;;;4940562;28;20509;-72
2023/10/11 05:01:39;;;;;;;10.00;4.78;;;;;;;;;;4938449;28;20046;-71
2023/10/11 05:04:12;;;;;;;9.77;4.78;;;;;;;;;;4939517;28;20038;-72
2023/10/11 05:06:41;;;;;;;8.75;3.88;;;;;;;;;;4940760;28;20080;-72
2023/10/11 05:09:21;;;;;;;10.82;4.40;;;;;;;;;;4942259;28;20159;-72
2023/10/11 05:11:58;;;;;;;15.98;5.47;;;;;;;;;;4940284;28;20030;-72
2023/10/11 05:14:30;;;;;;;;;;;;;;;;;;4943427;28;20043;-72
2023/10/11 05:19:39;;;;;;;11.07;5.70;;;;;;;;;;4944377;28;20043;-71
2023/10/11 05:22:08;;;;;;;9.07;4.72;;;;;;;;;;4942554;28;20414;-73
2023/10/11 05:25:12;;;;;;;10.40;4.07;;;;;;;;;;4939997;28;20731;-73
2023/10/11 05:32:49;;;;;;;11.97;5.53;;;;;;;;;;4943446;28;20177;-74
2023/10/11 05:51:29;;;;;;;10.45;4.57;;;;;;;;;;4943844;28;20060;-73
2023/10/11 05:53:56;;;;;;;9.60;4.45;;;;;;;;;;4944088;28;20275;-74
2023/10/11 05:56:22;;;;;;;10.88;4.68;;;;;;;;;;4940945;28;20450;-73
2023/10/11 05:58:52;;;;;;;10.45;4.60;;;;;;;;;;4943679;28;20448;-73
2023/10/11 06:01:22;;;;;;;10.60;4.53;;;;;;;;;;4941266;28;20038;-73
2023/10/11 06:03:49;;;;;;;11.45;4.50;;;;;;;;;;4937352;28;20078;-72
2023/10/11 06:06:27;;;;;;;9.95;4.22;;;;;;;;;;4935172;28;20117;-71
2023/10/11 06:08:56;;;;;;;10.20;4.70;;;;;;;;;;4939393;28;20484;-71
2023/10/11 06:11:24;;;;;;;9.75;4.95;;;;;;;;;;4941507;28;20109;-73
2023/10/11 06:13:52;;;;;;;9.93;5.10;;;;;;;;;;4939588;28;20397;-71
2023/10/11 06:16:22;;;;;;;10.15;4.80;;;;;;;;;;4936328;28;20034;-71
2023/10/11 06:18:57;;;;;;;9.38;4.47;;;;;;;;;;4938834;28;20038;-73
2023/10/11 06:21:33;;;;;;;10.07;4.75;;;;;;;;;;4939026;28;20035;-73
2023/10/11 06:24:00;;;;;;;13.20;4.93;;;;;;;;;;4937027;28;20412;-73
2023/10/11 06:26:52;;;;;;;11.13;4.75;;;;;;;;;;4940503;28;20011;-71
2023/10/11 06:29:18;;;;;;;10.75;4.25;;;;;;;;;;4938396;28;20046;-74
2023/10/11 06:31:44;;;;;;;10.45;4.00;;;;;;;;;;4941532;28;20051;-73
2023/10/11 06:34:35;;;;;;;11.40;4.30;;;;;;;;;;4942994;28;20544;-73
2023/10/11 06:37:00;;;;;;;9.25;4.55;;;;;;;;;;4939299;28;20035;-72
2023/10/11 06:39:34;;;;;;;9.70;4.03;;;;;;;;;;4945748;28;20034;-72
2023/10/11 06:42:12;;;;;;;10.35;4.30;;;;;;;;;;4944578;28;20030;-73
2023/10/11 06:44:42;;;;;;;11.80;4.53;;;;;;;;;;4944722;28;20045;-72
2023/10/11 06:47:11;;;;;;;11.90;4.05;;;;;;;;;;4943080;28;20644;-72
2023/10/11 06:49:40;;;;;;;10.15;3.55;;;;;;;;;;4943774;28;20285;-72
2023/10/11 06:52:17;;;;;;;10.73;4.72;;;;;;;;;;4943293;28;20061;-72
2023/10/11 06:54:47;;;;;;;9.07;3.97;;;;;;;;;;4948044;28;20665;-73
2023/10/11 06:57:19;;;;;;;13.27;5.53;;;;;;;;;;4939769;28;20556;-73
2023/10/11 06:59:49;;;;;;;14.35;5.78;;;;;;;;;;4942957;28;20484;-72
2023/10/11 07:02:31;;;;;;;13.30;4.60;;;;;;;;;;4945546;28;20181;-72
2023/10/11 07:05:00;;;;;;;19.70;5.75;;;;;;;;;;4943895;28;20030;-73
2023/10/11 07:07:32;;;;;;;15.43;5.60;;;;;;;;;;4944483;28;20028;-73
2023/10/11 07:10:00;;;;;;;15.45;5.30;;;;;;;;;;4945167;28;20310;-73
2023/10/11 07:12:39;;;;;;;19.17;6.55;;;;;;;;;;4946184;28;20027;-73
2023/10/11 07:15:08;;;;;;;13.43;5.88;;;;;;;;;;4944851;28;20190;-72
2023/10/11 07:17:34;;;;;;;13.45;5.53;;;;;;;;;;4946869;28;20035;-71
2023/10/11 07:20:01;;;;;;;15.77;5.47;;;;;;;;;;4944430;28;20030;-71
2023/10/11 07:22:27;;;;;;;13.80;4.82;;;;;;;;;;4944964;28;20058;-72
2023/10/11 07:24:59;;;;;;;13.48;4.40;;;;;;;;;;4945835;28;20058;-72
2023/10/11 07:27:37;;;;;;;12.45;4.25;;;;;;;;;;4942943;28;20453;-72
2023/10/11 07:30:15;;;;;;;12.13;4.90;;;;;;;;;;4945939;28;20271;-72
2023/10/11 07:32:42;;;;;;;9.35;3.92;;;;;;;;;;4945149;28;20085;-72
2023/10/11 07:35:17;;;;;;;11.00;4.78;;;;;;;;;;4943312;28;20240;-72
2023/10/11 07:37:44;;;;;;;13.40;4.32;;;;;;;;;;4946423;28;20629;-72
2023/10/11 07:40:13;;;;;;;13.07;5.15;;;;;;;;;;4944124;28;20480;-72
2023/10/11 07:42:40;;;;;;;11.15;4.20;;;;;;;;;;4944904;28;20034;-72
2023/10/11 07:45:12;;;;;;;15.27;5.72;;;;;;;;;;4944658;28;20735;-72
2023/10/11 07:47:51;;;;;;;19.90;5.82;;;;;;;;;;4945522;28;20429;-72
2023/10/11 07:50:22;;;;;;;16.33;5.60;;;;;;;;;;4945098;28;20034;-72
2023/10/11 07:52:48;;;;;;;20.02;4.97;;;;;;;;;;4945568;28;20474;-72
2023/10/11 07:55:17;;;;;;;19.27;5.72;;;;;;;;;;4944487;28;20042;-74
2023/10/11 07:57:46;;;;;;;18.75;5.57;;;;;;;;;;4931774;28;20042;-72
2023/10/11 08:00:19;;;;;;;16.17;4.82;;;;;;;;;;4941036;28;20825;-73
2023/10/11 08:02:56;;;;;;;12.05;4.53;;;;;;;;;;4945319;28;20041;-72
2023/10/11 08:05:25;;;;;;;11.68;4.70;;;;;;;;;;4944634;28;20061;-72
2023/10/11 08:07:55;;;;;;;13.27;4.53;;;;;;;;;;4947537;28;20587;-73
2023/10/11 08:10:33;;;;;;;10.15;4.05;;;;;;;;;;4946886;28;20065;-74
2023/10/11 08:13:03;;;;;;;8.70;3.88;;;;;;;;;;4945597;28;20031;-74
2023/10/11 08:15:30;;;;;;;10.38;3.80;;;;;;;;;;4942340;28;20035;-74
2023/10/11 08:17:56;;;;;;;11.65;4.10;;;;;;;;;;4940686;28;20360;-74
2023/10/11 08:20:28;;;;;;;10.20;4.10;;;;;;;;;;4944771;28;20138;-74
2023/10/11 08:22:56;;;;;;;8.60;3.90;;;;;;;;;;4941948;28;20027;-74
2023/10/11 08:25:28;;;;;;;10.07;3.95;;;;;;;;;;4946290;28;20141;-74
2023/10/11 08:28:12;;;;;;;13.30;4.82;;;;;;;;;;4942518;28;20497;-73
2023/10/11 08:30:45;;;;;;;9.60;3.80;;;;;;;;;;4944845;28;20041;-73
2023/10/11 08:33:12;;;;;;;10.68;4.53;;;;;;;;;;4942006;28;20018;-73
2023/10/11 08:35:38;;;;;;;8.73;3.80;;;;;;;;;;4946570;28;20817;-72
2023/10/11 08:38:04;;;;;;;13.50;4.30;;;;;;;;;;4941856;28;20023;-73
2023/10/11 08:40:39;;;;;;;11.80;4.43;;;;;;;;;;4947791;28;20068;-73
2023/10/11 08:43:06;;;;;;;8.68;3.65;;;;;;;;;;4957418;28;20038;-73
2023/10/11 08:45:49;;;;;;;12.30;4.35;;;;;;;;;;4946886;28;20039;-73
2023/10/11 08:48:15;;;;;;;15.85;4.85;;;;;;;;;;4942642;28;20034;-73
2023/10/11 08:50:57;;;;;;;11.05;4.30;;;;;;;;;;4940344;28;20030;-74
2023/10/11 08:53:26;;;;;;;12.80;3.83;;;;;;;;;;4947237;28;20133;-73
2023/10/11 08:55:59;;;;;;;14.25;4.47;;;;;;;;;;4945128;28;20149;-73
2023/10/11 08:58:30;;;;;;;13.50;4.50;;;;;;;;;;4948700;28;20508;-74
2023/10/11 09:00:58;;;;;;;14.73;4.60;;;;;;;;;;4937943;28;20035;-73
2023/10/11 09:03:26;;;;;;;12.45;3.78;;;;;;;;;;4947741;28;20047;-73
2023/10/11 09:05:58;;;;;;;8.57;3.88;;;;;;;;;;4943822;28;20495;-73
2023/10/11 09:08:31;;;;;;;7.93;3.25;;;;;;;;;;4941106;28;20069;-73
2023/10/11 09:11:12;;;;;;;8.75;3.60;;;;;;;;;;4938987;28;20054;-73
2023/10/11 09:13:39;;;;;;;11.15;3.88;;;;;;;;;;4943538;28;20061;-73
2023/10/11 09:16:12;;;;;;;8.25;3.63;;;;;;;;;;4941192;28;20034;-73
2023/10/11 09:18:39;;;;;;;8.93;3.53;;;;;;;;;;4942557;28;21457;-73
2023/10/11 09:21:18;;;;;;;9.45;3.88;;;;;;;;;;4938352;28;20039;-73
2023/10/11 09:23:48;;;;;;;7.55;3.22;;;;;;;;;;4959902;28;20062;-73
2023/10/11 09:26:34;;;;;;;10.23;3.50;;;;;;;;;;4940336;28;20026;-73
2023/10/11 09:29:02;;;;;;;7.53;3.13;;;;;;;;;;4940565;28;20674;-73
2023/10/11 09:31:32;;;;;;;9.88;3.20;;;;;;;;;;4947268;28;20164;-73
2023/10/11 09:34:03;;;;;;;10.18;3.40;;;;;;;;;;4942382;28;20780;-73
2023/10/11 09:36:29;;;;;;;8.70;3.35;;;;;;;;;;4945465;28;20576;-71
2023/10/11 09:38:56;;;;;;;11.43;3.40;;;;;;;;;;4942441;28;20042;-74
2023/10/11 09:41:38;;;;;;;9.18;3.55;;;;;;;;;;4946100;28;20122;-72
2023/10/11 09:44:05;;;;;;;12.55;4.15;;;;;;;;;;4945067;28;20564;-72
2023/10/11 09:46:33;;;;;;;10.20;3.40;;;;;;;;;;4943667;28;20030;-73
2023/10/11 09:49:00;;;;;;;9.05;3.58;;;;;;;;;;4942988;28;20034;-72
2023/10/11 09:51:26;;;;;;;8.00;3.15;;;;;;;;;;4947392;28;20043;-73
2023/10/11 09:53:53;;;;;;;9.20;3.33;;;;;;;;;;4941045;28;20042;-73
2023/10/11 09:56:32;;;;;;;9.45;3.40;;;;;;;;;;4942284;28;20034;-72
2023/10/11 10:02:02;;;;;;;8.35;3.42;;;;;;;;;;5258448;23;20055;-72
2023/10/11 10:04:49;;;;;;;7.28;2.90;;;;;;;;;;4959006;28;20368;-72
2023/10/11 10:07:25;;;;;;;8.77;3.25;;;;;;;;;;4954765;28;20575;-72
2023/10/11 10:10:02;;;;;;;8.75;3.38;;;;;;;;;;4959854;28;20599;-72
2023/10/11 10:12:56;;;;;;;9.00;3.05;;;;;;;;;;4975306;28;20275;-72
2023/10/11 10:15:28;;;;;;;6.75;2.92;;;;;;;;;;4961924;28;20145;-72
2023/10/11 10:18:00;;;;;;;8.60;2.97;;;;;;;;;;4961868;28;20035;-72
2023/10/11 10:20:38;;;;;;;7.85;3.30;;;;;;;;;;4959767;28;20090;-72
2023/10/11 10:23:16;;;;;;;8.20;3.30;;;;;;;;;;4955742;28;20041;-72
2023/10/11 10:25:46;;;;;;;9.07;3.30;;;;;;;;;;4957653;28;20518;-72
2023/10/11 10:28:31;;;;;;;8.85;3.50;;;;;;;;;;4958807;28;20038;-73
2023/10/11 10:31:05;;;;;;;8.45;3.33;;;;;;;;;;4952889;28;20045;-72
2023/10/11 10:33:35;;;;;;;7.72;3.38;;;;;;;;;;4962715;28;20317;-72
2023/10/11 10:36:32;;;;;;;6.65;3.13;;;;;;;;;;4972004;28;20637;-72
2023/10/11 10:39:00;;;;;;;9.18;3.35;;;;;;;;;;4957245;28;20325;-73
2023/10/11 10:41:27;;;;;;;7.07;2.97;;;;;;;;;;4959488;28;20084;-72
2023/10/11 10:44:12;;;;;;;8.15;3.33;;;;;;;;;;4958668;28;21055;-73
2023/10/11 10:46:53;;;;;;;8.52;3.47;;;;;;;;;;4959467;28;20070;-72
2023/10/11 10:49:42;;;;;;;8.43;3.38;;;;;;;;;;4959310;28;20042;-72
2023/10/11 10:52:16;;;;;;;8.35;3.40;;;;;;;;;;4957550;28;20197;-73
2023/10/11 10:54:53;;;;;;;8.52;3.33;;;;;;;;;;4961594;28;20493;-73
2023/10/11 10:57:24;;;;;;;7.03;3.03;;;;;;;;;;4956331;28;20034;-73
2023/10/11 10:59:50;;;;;;;8.93;3.25;;;;;;;;;;4960568;28;20617;-72
2023/10/11 11:02:19;;;;;;;7.35;3.00;;;;;;;;;;4956928;28;20054;-72
2023/10/11 11:04:46;;;;;;;8.27;2.97;;;;;;;;;;4963127;28;20113;-73
2023/10/11 11:07:26;;;;;;;7.20;2.95;;;;;;;;;;4959018;28;20045;-72
2023/10/11 11:09:54;;;;;;;7.97;3.40;;;;;;;;;;4962821;28;20026;-73
2023/10/11 11:12:28;;;;;;;7.00;2.60;;;;;;;;;;4958402;28;20041;-73
2023/10/11 11:15:04;;;;;;;7.63;3.25;;;;;;;;;;4959032;28;20503;-73
2023/10/11 11:17:46;;;;;;;7.05;2.90;;;;;;;;;;4958964;28;20835;-73
2023/10/11 11:20:27;;;;;;;7.65;3.40;;;;;;;;;;4973571;28;20816;-72
2023/10/11 11:22:54;;;;;;;7.15;2.92;;;;;;;;;;4962689;28;20030;-72
2023/10/11 11:28:16;;;;;;;8.02;3.00;;;;;;;;;;4967232;28;20149;-74
2023/10/11 11:30:44;;;;;;;6.90;2.88;;;;;;;;;;4962735;28;20469;-72
2023/10/11 11:33:34;;;;;;;9.35;3.00;;;;;;;;;;4961643;28;20766;-72
2023/10/11 11:36:01;;;;;;;8.73;3.03;;;;;;;;;;4963338;28;20389;-72
2023/10/11 11:38:30;;;;;;;8.27;2.75;;;;;;;;;;4965032;28;20118;-72
2023/10/11 11:41:04;;;;;;;8.10;3.40;;;;;;;;;;4963396;28;20502;-72
2023/10/11 11:43:38;;;;;;;11.52;3.50;;;;;;;;;;4980734;28;20780;-72
2023/10/11 11:46:04;;;;;;;7.80;3.30;;;;;;;;;;4958422;28;20031;-73
2023/10/11 11:48:40;;;;;;;8.25;2.90;;;;;;;;;;4966397;28;20034;-73
2023/10/11 11:51:13;;;;;;;7.93;3.15;;;;;;;;;;4963311;28;20030;-73
2023/10/11 11:53:41;;;;;;;10.82;3.58;;;;;;;;;;4982202;28;20331;-72
2023/10/11 11:56:07;;;;;;;8.95;3.10;;;;;;;;;;4962464;28;20591;-72
2023/10/11 11:58:33;;;;;;;8.45;3.10;;;;;;;;;;4962747;28;20029;-73
2023/10/11 12:01:08;;;;;;;7.25;2.90;;;;;;;;;;4960966;28;20493;-73
2023/10/11 12:03:36;;;;;;;7.97;2.97;;;;;;;;;;4961030;28;20037;-73
2023/10/11 12:06:21;;;;;;;7.25;3.00;;;;;;;;;;4975863;28;20030;-72
2023/10/11 12:08:47;;;;;;;7.30;2.78;;;;;;;;;;4961531;28;20030;-75
2023/10/11 12:11:15;;;;;;;8.00;3.00;;;;;;;;;;4960582;28;20140;-75
2023/10/11 12:13:41;;;;;;;7.10;2.85;;;;;;;;;;4964575;28;20179;-75
2023/10/11 12:16:09;;;;;;;7.43;3.10;;;;;;;;;;4958000;28;20045;-75
2023/10/11 12:18:35;;;;;;;8.15;3.00;;;;;;;;;;4975862;28;20435;-73
2023/10/11 12:21:11;;;;;;;7.82;3.00;;;;;;;;;;4960026;28;20129;-73
2023/10/11 12:23:45;;;;;;;7.97;3.22;;;;;;;;;;4960264;28;20133;-73
2023/10/11 12:26:11;;;;;;;7.68;3.00;;;;;;;;;;4959865;28;21184;-73
2023/10/11 12:28:37;;;;;;;9.52;3.20;;;;;;;;;;4946286;28;20030;-73
2023/10/11 12:31:04;;;;;;;7.10;3.15;;;;;;;;;;4971225;28;20321;-73
2023/10/11 12:33:30;;;;;;;7.95;3.22;;;;;;;;;;4977648;28;20030;-73
2023/10/11 12:35:57;;;;;;;9.02;3.63;;;;;;;;;;4957747;28;20106;-73
2023/10/11 12:38:23;;;;;;;10.80;3.60;;;;;;;;;;4959942;28;20034;-73
2023/10/11 12:40:50;;;;;;;10.30;3.13;;;;;;;;;;4960836;28;20022;-73
2023/10/11 12:43:22;;;;;;;9.07;3.00;;;;;;;;;;4958056;28;23426;-73
2023/10/11 12:45:48;;;;;;;8.52;2.90;;;;;;;;;;4958901;28;20144;-73
2023/10/11 12:48:15;;;;;;;7.97;3.10;;;;;;;;;;4959687;28;20559;-73
2023/10/11 12:50:41;;;;;;;8.38;3.20;;;;;;;;;;4961981;28;20250;-73
2023/10/11 12:53:10;;;;;;;9.18;3.80;;;;;;;;;;4958753;28;20031;-73
2023/10/11 12:55:41;;;;;;;7.28;3.03;;;;;;;;;;4960273;28;20034;-74
2023/10/11 12:58:08;;;;;;;8.82;3.50;;;;;;;;;;4957297;28;20961;-73
2023/10/11 13:00:37;;;;;;;8.75;3.47;;;;;;;;;;4958401;28;20317;-73
2023/10/11 13:03:24;;;;;;;9.18;3.40;;;;;;;;;;4973700;28;20128;-73
2023/10/11 13:05:53;;;;;;;7.70;3.30;;;;;;;;;;4974997;28;20050;-73
2023/10/11 13:08:24;;;;;;;11.93;3.83;;;;;;;;;;4957887;28;20213;-74
2023/10/11 13:10:51;;;;;;;8.32;3.50;;;;;;;;;;4961960;28;20030;-73
2023/10/11 13:13:18;;;;;;;7.60;3.13;;;;;;;;;;4955970;28;20030;-73
2023/10/11 13:15:59;;;;;;;8.02;3.40;;;;;;;;;;4960658;28;20114;-74
2023/10/11 13:18:26;;;;;;;10.55;3.42;;;;;;;;;;4957098;28;20113;-73
2023/10/11 13:20:55;;;;;;;9.38;3.55;;;;;;;;;;4960143;28;20033;-72
2023/10/11 13:23:28;;;;;;;8.32;2.97;;;;;;;;;;4956484;28;20038;-73
2023/10/11 13:25:55;;;;;;;8.30;3.30;;;;;;;;;;4956516;28;20037;-72
2023/10/11 13:28:22;;;;;;;7.35;3.28;;;;;;;;;;4958566;28;20331;-73
2023/10/11 13:30:48;;;;;;;8.45;3.20;;;;;;;;;;4962521;28;20046;-73
2023/10/11 13:33:16;;;;;;;8.82;3.50;;;;;;;;;;4958347;28;20326;-73
2023/10/11 13:35:42;;;;;;;7.63;3.30;;;;;;;;;;4962493;28;20687;-73
2023/10/11 13:38:11;;;;;;;7.55;3.03;;;;;;;;;;4959325;28;20540;-73
2023/10/11 13:40:39;;;;;;;8.07;3.20;;;;;;;;;;4960609;28;20814;-74
2023/10/11 13:43:05;;;;;;;12.70;3.33;;;;;;;;;;4957238;28;20034;-74
2023/10/11 13:45:31;;;;;;;8.18;3.45;;;;;;;;;;4959379;28;20031;-74
2023/10/11 13:47:57;;;;;;;9.13;3.60;;;;;;;;;;4957892;28;20231;-73
2023/10/11 13:50:35;;;;;;;10.55;3.15;;;;;;;;;;4959671;28;20145;-73
2023/10/11 13:53:01;;;;;;;10.52;3.70;;;;;;;;;;4973577;28;20137;-73
2023/10/11 13:55:27;;;;;;;8.20;2.92;;;;;;;;;;4960252;28;20735;-73
2023/10/11 13:57:55;;;;;;;8.70;3.15;;;;;;;;;;4961099;28;20109;-73
2023/10/11 14:05:40;;;;;;;8.02;3.38;;;;;;;;;;4958767;28;20283;-73
2023/10/11 14:08:30;;;;;;;8.30;3.47;;;;;;;;;;4954804;28;20428;-73
2023/10/11 14:10:53;;;;;;;9.93;4.20;;;;;;;;;;4959359;28;20579;-73
2023/10/11 14:13:27;;;;;;;7.22;3.50;;;;;;;;;;4955833;28;20137;-72
2023/10/11 14:15:54;;;;;;;7.93;3.50;;;;;;;;;;4959676;28;20278;-73
2023/10/11 14:18:20;;;;;;;12.95;3.80;;;;;;;;;;4957414;28;20363;-72
2023/10/11 14:20:55;;;;;;;9.70;3.88;;;;;;;;;;4957091;28;20043;-73
2023/10/11 14:23:21;;;;;;;;;;;;;;;;;;4958642;28;20034;-72
2023/10/11 14:25:55;;;;;;;10.20;4.03;;;;;;;;;;4960837;28;19944;-72
2023/10/11 14:28:22;;;;;;;12.23;3.40;;;;;;;;;;4959954;28;20050;-72
2023/10/11 14:30:51;;;;;;;10.05;4.03;;;;;;;;;;4958964;28;20595;-72
2023/10/11 14:33:21;;;;;;;8.73;3.55;;;;;;;;;;4955145;28;20069;-72
2023/10/11 14:35:48;;;;;;;10.88;3.50;;;;;;;;;;4956182;28;20042;-73
2023/10/11 14:38:14;;;;;;;10.05;3.67;;;;;;;;;;4958042;28;20030;-72
2023/10/11 14:40:44;;;;;;;11.63;3.38;;;;;;;;;;4957302;28;20041;-72
2023/10/11 14:43:14;;;;;;;11.68;3.42;;;;;;;;;;4970280;28;20117;-72
2023/10/11 14:45:41;;;;;;;9.43;3.20;;;;;;;;;;4957032;28;20742;-72
2023/10/11 14:48:10;;;;;;;12.55;3.47;;;;;;;;;;4957216;28;20436;-72
2023/10/11 14:50:42;;;;;;;12.10;4.00;;;;;;;;;;4972763;28;20484;-72
2023/10/11 14:53:13;;;;;;;9.05;3.28;;;;;;;;;;4957927;28;20236;-72
2023/10/11 14:55:44;;;;;;;10.52;3.38;;;;;;;;;;4957777;28;20038;-72
2023/10/11 14:58:11;;;;;;;11.55;3.72;;;;;;;;;;4958502;28;20046;-72
2023/10/11 15:00:37;;;;;;;12.00;4.28;;;;;;;;;;4960343;28;20115;-72
2023/10/11 15:03:04;;;;;;;7.93;3.28;;;;;;;;;;4960470;28;20120;-73
2023/10/11 15:05:31;;;;;;;13.40;3.92;;;;;;;;;;4963929;28;20364;-72
2023/10/11 15:07:57;;;;;;;8.40;3.60;;;;;;;;;;4976186;28;20038;-71
2023/10/11 15:10:24;;;;;;;9.13;3.70;;;;;;;;;;4964022;28;20045;-73
2023/10/11 15:12:51;;;;;;;8.38;3.63;;;;;;;;;;4959252;28;20165;-71
2023/10/11 15:15:26;;;;;;;13.02;3.60;;;;;;;;;;4957783;28;20038;-71
2023/10/11 15:17:52;;;;;;;11.55;3.50;;;;;;;;;;4963076;28;20347;-72
2023/10/11 15:20:20;;;;;;;10.20;3.30;;;;;;;;;;4959952;28;20053;-71
2023/10/11 15:22:54;;;;;;;8.52;4.20;;;;;;;;;;4963680;28;21088;-71
2023/10/11 15:25:21;;;;;;;10.18;3.38;;;;;;;;;;4960607;28;20109;-72
2023/10/11 15:27:48;;;;;;;10.07;3.30;;;;;;;;;;4962794;28;20022;-72
2023/10/11 15:30:14;;;;;;;9.65;2.92;;;;;;;;;;4959548;28;20030;-73
2023/10/11 15:32:40;;;;;;;9.38;3.20;;;;;;;;;;4962780;28;20310;-72
2023/10/11 15:35:07;;;;;;;9.35;3.50;;;;;;;;;;4960271;28;20026;-72
2023/10/11 15:37:33;;;;;;;8.40;2.97;;;;;;;;;;4961258;28;20118;-72
2023/10/11 15:40:00;;;;;;;11.80;3.42;;;;;;;;;;4960488;28;20495;-72
2023/10/11 15:42:28;;;;;;;10.13;3.20;;;;;;;;;;4962077;28;20034;-72
2023/10/11 15:44:54;;;;;;;7.60;3.35;;;;;;;;;;4960365;28;20560;-72